Counselor, New Mexico
Current Conditions -  °F | °C
As of 8:53 PM on Friday 24 Oct 2014 (Local Time) from KFMN Reporting Station
Clear Clear  
Wind Chill: 51°   Ceiling: Unl
Heat Index: 51°   Visibility: 10mi
Dew Point: 29°   Wind: 3mph
Humidity: 43%   Direction: 70°ENE
Pressure: 30.27"   Gusts: NA
Location:  36.21°N, 107.46°W
Report Text: KFMN 250253Z 07003KT 10SM CLR 11/M02 A3027 RMK AO2 SLP235 T01061017 53007
Loading
Personal Weather Stations






























Interactive Weather Map
Tropical Storm Tracking
New forecast layout! Learn more

10-Day Weather Forecast

Advertisements
Track Severe Weather on mobile